sensor_id;sensor_type;location;lat;lon;timestamp;pressure;altitude;pressure_sealevel;temperature;humidity
18527;BME280;9393;42.158;24.748;2022-10-03T00:01:52;99487.84;;;19.41;42.65
18527;BME280;9393;42.158;24.748;2022-10-03T00:05:13;99484.03;;;19.63;42.34
18527;BME280;9393;42.158;24.748;2022-10-03T00:08:34;99480.81;;;19.81;42.22
18527;BME280;9393;42.158;24.748;2022-10-03T00:11:48;99480.19;;;19.79;41.47
18527;BME280;9393;42.158;24.748;2022-10-03T00:15:02;99460.81;;;19.46;41.73
18527;BME280;9393;42.158;24.748;2022-10-03T00:18:20;99456.78;;;19.70;41.76
18527;BME280;9393;42.158;24.748;2022-10-03T00:21:38;99469.72;;;19.38;41.98
18527;BME280;9393;42.158;24.748;2022-10-03T00:24:57;99473.88;;;19.60;41.54
18527;BME280;9393;42.158;24.748;2022-10-03T00:28:11;99474.28;;;19.77;41.17
18527;BME280;9393;42.158;24.748;2022-10-03T00:31:32;99469.00;;;19.77;41.10
18527;BME280;9393;42.158;24.748;2022-10-03T00:34:52;99466.75;;;19.87;41.31
18527;BME280;9393;42.158;24.748;2022-10-03T00:38:12;99459.41;;;19.83;41.48
18527;BME280;9393;42.158;24.748;2022-10-03T00:49:31;99443.34;;;19.97;41.12
18527;BME280;9393;42.158;24.748;2022-10-03T00:53:02;99448.44;;;20.05;40.84
18527;BME280;9393;42.158;24.748;2022-10-03T00:56:27;99435.81;;;19.88;41.38
18527;BME280;9393;42.158;24.748;2022-10-03T00:59:46;99437.03;;;20.05;41.08
18527;BME280;9393;42.158;24.748;2022-10-03T01:06:30;99416.28;;;19.82;41.47
18527;BME280;9393;42.158;24.748;2022-10-03T01:09:48;99416.47;;;19.94;41.60
18527;BME280;9393;42.158;24.748;2022-10-03T01:13:11;99407.94;;;19.98;41.56
18527;BME280;9393;42.158;24.748;2022-10-03T01:16:27;99398.78;;;19.88;41.58
18527;BME280;9393;42.158;24.748;2022-10-03T01:20:00;99396.53;;;19.98;41.58
18527;BME280;9393;42.158;24.748;2022-10-03T01:26:57;99400.19;;;19.84;41.58
18527;BME280;9393;42.158;24.748;2022-10-03T01:30:07;99401.03;;;19.71;41.93
18527;BME280;9393;42.158;24.748;2022-10-03T01:33:28;99408.34;;;19.76;41.84
18527;BME280;9393;42.158;24.748;2022-10-03T01:36:38;99399.59;;;19.75;41.90
18527;BME280;9393;42.158;24.748;2022-10-03T01:39:51;99394.50;;;19.67;42.35
18527;BME280;9393;42.158;24.748;2022-10-03T01:43:02;99400.00;;;19.79;42.23
18527;BME280;9393;42.158;24.748;2022-10-03T01:46:15;99401.84;;;19.72;42.42
18527;BME280;9393;42.158;24.748;2022-10-03T01:49:23;99393.88;;;19.91;41.94
18527;BME280;9393;42.158;24.748;2022-10-03T01:52:37;99393.91;;;19.85;42.08
18527;BME280;9393;42.158;24.748;2022-10-03T01:55:50;99400.00;;;19.85;42.21
18527;BME280;9393;42.158;24.748;2022-10-03T01:59:01;99397.78;;;19.82;42.24
18527;BME280;9393;42.158;24.748;2022-10-03T02:02:24;99391.66;;;19.69;42.37
18527;BME280;9393;42.158;24.748;2022-10-03T02:05:39;99394.69;;;19.65;42.67
18527;BME280;9393;42.158;24.748;2022-10-03T02:08:50;99395.31;;;19.61;42.51
18527;BME280;9393;42.158;24.748;2022-10-03T02:12:05;99392.28;;;19.57;42.61
18527;BME280;9393;42.158;24.748;2022-10-03T02:15:16;99400.00;;;19.52;43.06
18527;BME280;9393;42.158;24.748;2022-10-03T02:18:28;99403.25;;;19.61;42.76
18527;BME280;9393;42.158;24.748;2022-10-03T02:21:46;99396.47;;;19.32;43.44
18527;BME280;9393;42.158;24.748;2022-10-03T02:24:59;99401.50;;;19.01;44.08
18527;BME280;9393;42.158;24.748;2022-10-03T02:35:35;99396.66;;;19.17;43.90
18527;BME280;9393;42.158;24.748;2022-10-03T02:39:10;99387.84;;;18.97;44.52
18527;BME280;9393;42.158;24.748;2022-10-03T02:42:58;99385.91;;;19.39;43.92
18527;BME280;9393;42.158;24.748;2022-10-03T02:46:51;99382.81;;;19.15;44.49
18527;BME280;9393;42.158;24.748;2022-10-03T02:57:54;99377.31;;;19.10;45.06
18527;BME280;9393;42.158;24.748;2022-10-03T03:08:41;99377.41;;;19.50;44.07
18527;BME280;9393;42.158;24.748;2022-10-03T03:12:15;99375.72;;;19.29;44.73
18527;BME280;9393;42.158;24.748;2022-10-03T03:15:51;99369.81;;;19.21;45.20
18527;BME280;9393;42.158;24.748;2022-10-03T03:19:23;99364.81;;;18.65;46.17
18527;BME280;9393;42.158;24.748;2022-10-03T03:22:39;99361.13;;;18.25;47.28
18527;BME280;9393;42.158;24.748;2022-10-03T03:26:02;99352.25;;;18.80;45.87
18527;BME280;9393;42.158;24.748;2022-10-03T03:29:20;99353.34;;;19.05;45.46
18527;BME280;9393;42.158;24.748;2022-10-03T03:32:39;99350.69;;;19.18;44.79
18527;BME280;9393;42.158;24.748;2022-10-03T03:35:57;99340.94;;;19.26;44.33
18527;BME280;9393;42.158;24.748;2022-10-03T03:39:14;99340.13;;;19.12;44.72
18527;BME280;9393;42.158;24.748;2022-10-03T03:46:15;99325.41;;;18.77;44.58
18527;BME280;9393;42.158;24.748;2022-10-03T03:49:37;99322.44;;;18.99;44.27
18527;BME280;9393;42.158;24.748;2022-10-03T03:52:56;99323.84;;;18.95;44.25
18527;BME280;9393;42.158;24.748;2022-10-03T03:56:21;99329.28;;;18.87;43.89
18527;BME280;9393;42.158;24.748;2022-10-03T03:59:38;99318.47;;;18.69;44.37
18527;BME280;9393;42.158;24.748;2022-10-03T04:03:09;99322.16;;;18.68;44.30
18527;BME280;9393;42.158;24.748;2022-10-03T04:06:34;99316.31;;;18.45;44.59
18527;BME280;9393;42.158;24.748;2022-10-03T04:10:06;99314.72;;;18.44;44.79
18527;BME280;9393;42.158;24.748;2022-10-03T04:13:35;99306.84;;;18.09;45.42
18527;BME280;9393;42.158;24.748;2022-10-03T04:17:06;99292.34;;;18.40;44.60
18527;BME280;9393;42.158;24.748;2022-10-03T04:20:51;99299.94;;;18.56;44.43
18527;BME280;9393;42.158;24.748;2022-10-03T04:24:18;99297.91;;;18.51;44.75
18527;BME280;9393;42.158;24.748;2022-10-03T04:31:22;99291.16;;;18.49;44.58
18527;BME280;9393;42.158;24.748;2022-10-03T04:34:38;99278.94;;;18.41;44.80
18527;BME280;9393;42.158;24.748;2022-10-03T04:37:47;99280.56;;;18.42;44.83
18527;BME280;9393;42.158;24.748;2022-10-03T04:41:05;99290.94;;;18.37;45.05
18527;BME280;9393;42.158;24.748;2022-10-03T04:44:29;99299.56;;;18.18;45.23
18527;BME280;9393;42.158;24.748;2022-10-03T04:47:42;99300.75;;;18.09;45.37
18527;BME280;9393;42.158;24.748;2022-10-03T04:50:54;99311.00;;;17.63;46.50
18527;BME280;9393;42.158;24.748;2022-10-03T04:54:13;99312.63;;;17.92;46.35
18527;BME280;9393;42.158;24.748;2022-10-03T04:57:24;99306.44;;;18.06;46.10
18527;BME280;9393;42.158;24.748;2022-10-03T05:00:32;99297.13;;;18.16;45.63
18527;BME280;9393;42.158;24.748;2022-10-03T05:03:47;99305.06;;;18.16;45.97
18527;BME280;9393;42.158;24.748;2022-10-03T05:07:03;99301.22;;;18.26;45.77
18527;BME280;9393;42.158;24.748;2022-10-03T05:13:57;99309.75;;;18.28;46.26
18527;BME280;9393;42.158;24.748;2022-10-03T05:17:10;99309.19;;;18.39;45.83
18527;BME280;9393;42.158;24.748;2022-10-03T05:20:26;99308.91;;;18.21;46.30
18527;BME280;9393;42.158;24.748;2022-10-03T05:23:40;99309.84;;;18.47;45.95
18527;BME280;9393;42.158;24.748;2022-10-03T05:26:53;99302.53;;;18.49;46.19
18527;BME280;9393;42.158;24.748;2022-10-03T05:30:04;99302.59;;;18.56;45.41
18527;BME280;9393;42.158;24.748;2022-10-03T05:33:20;99308.28;;;18.53;45.49
18527;BME280;9393;42.158;24.748;2022-10-03T05:36:29;99306.63;;;18.11;46.51
18527;BME280;9393;42.158;24.748;2022-10-03T05:39:41;99299.88;;;18.43;46.02
18527;BME280;9393;42.158;24.748;2022-10-03T05:42:59;99304.81;;;18.52;45.56
18527;BME280;9393;42.158;24.748;2022-10-03T05:46:14;99305.03;;;18.51;45.67
18527;BME280;9393;42.158;24.748;2022-10-03T05:49:32;99300.69;;;18.37;46.52
18527;BME280;9393;42.158;24.748;2022-10-03T05:52:53;99312.63;;;18.80;45.42
18527;BME280;9393;42.158;24.748;2022-10-03T05:56:06;99309.97;;;18.80;45.41
18527;BME280;9393;42.158;24.748;2022-10-03T05:59:34;99296.16;;;18.72;45.88
18527;BME280;9393;42.158;24.748;2022-10-03T06:06:18;99296.19;;;19.17;45.24
18527;BME280;9393;42.158;24.748;2022-10-03T06:09:49;99301.69;;;19.36;44.58
18527;BME280;9393;42.158;24.748;2022-10-03T06:13:13;99299.47;;;19.46;43.80
18527;BME280;9393;42.158;24.748;2022-10-03T06:16:27;99298.06;;;19.43;44.35
18527;BME280;9393;42.158;24.748;2022-10-03T06:19:47;99300.69;;;19.56;44.40
18527;BME280;9393;42.158;24.748;2022-10-03T06:23:14;99298.03;;;19.70;44.74
18527;BME280;9393;42.158;24.748;2022-10-03T06:26:45;99294.28;;;20.03;44.14
18527;BME280;9393;42.158;24.748;2022-10-03T06:30:11;99294.75;;;20.51;42.49
18527;BME280;9393;42.158;24.748;2022-10-03T06:33:52;99294.22;;;21.05;41.61
18527;BME280;9393;42.158;24.748;2022-10-03T06:44:27;99292.81;;;21.77;39.91
18527;BME280;9393;42.158;24.748;2022-10-03T06:47:56;99296.03;;;21.61;40.20
18527;BME280;9393;42.158;24.748;2022-10-03T06:51:20;99292.94;;;22.55;39.50
18527;BME280;9393;42.158;24.748;2022-10-03T07:02:18;99280.50;;;23.50;37.04
18527;BME280;9393;42.158;24.748;2022-10-03T07:06:09;99288.34;;;23.91;36.17
18527;BME280;9393;42.158;24.748;2022-10-03T07:13:12;99282.91;;;24.49;35.03
18527;BME280;9393;42.158;24.748;2022-10-03T07:16:49;99287.34;;;24.44;34.99
18527;BME280;9393;42.158;24.748;2022-10-03T07:20:09;99280.06;;;25.12;34.27
18527;BME280;9393;42.158;24.748;2022-10-03T07:23:37;99280.28;;;25.11;33.85
18527;BME280;9393;42.158;24.748;2022-10-03T07:27:11;99265.19;;;24.72;33.59
18527;BME280;9393;42.158;24.748;2022-10-03T07:30:20;99270.88;;;24.75;34.02
18527;BME280;9393;42.158;24.748;2022-10-03T07:33:52;99272.13;;;25.18;32.45
18527;BME280;9393;42.158;24.748;2022-10-03T07:37:32;99264.22;;;25.06;33.27
18527;BME280;9393;42.158;24.748;2022-10-03T07:41:19;99268.44;;;24.45;33.98
18527;BME280;9393;42.158;24.748;2022-10-03T07:48:24;99268.22;;;23.84;35.29
18527;BME280;9393;42.158;24.748;2022-10-03T07:51:45;99265.22;;;23.69;35.49
18527;BME280;9393;42.158;24.748;2022-10-03T07:55:22;99272.16;;;23.81;35.66
18527;BME280;9393;42.158;24.748;2022-10-03T07:58:55;99276.06;;;24.13;35.32
18527;BME280;9393;42.158;24.748;2022-10-03T08:02:18;99278.25;;;24.05;35.39
18527;BME280;9393;42.158;24.748;2022-10-03T08:05:38;99266.91;;;24.09;35.49
18527;BME280;9393;42.158;24.748;2022-10-03T08:16:21;99272.72;;;24.46;35.03
18527;BME280;9393;42.158;24.748;2022-10-03T08:19:40;99276.16;;;24.30;35.19
18527;BME280;9393;42.158;24.748;2022-10-03T08:23:03;99282.06;;;24.09;35.65
18527;BME280;9393;42.158;24.748;2022-10-03T08:26:16;99278.34;;;24.33;35.68
18527;BME280;9393;42.158;24.748;2022-10-03T08:29:43;99273.41;;;24.02;35.69
18527;BME280;9393;42.158;24.748;2022-10-03T08:33:22;99274.13;;;23.74;36.04
18527;BME280;9393;42.158;24.748;2022-10-03T08:36:41;99276.44;;;23.59;36.50
18527;BME280;9393;42.158;24.748;2022-10-03T08:40:10;99275.03;;;23.33;37.19
18527;BME280;9393;42.158;24.748;2022-10-03T08:48:04;99286.25;;;23.24;38.04
18527;BME280;9393;42.158;24.748;2022-10-03T08:55:30;99290.88;;;23.17;38.91
18527;BME280;9393;42.158;24.748;2022-10-03T08:59:11;99291.31;;;23.13;39.15
18527;BME280;9393;42.158;24.748;2022-10-03T09:06:59;99302.59;;;22.97;39.96
18527;BME280;9393;42.158;24.748;2022-10-03T09:10:35;99301.28;;;23.30;39.67
18527;BME280;9393;42.158;24.748;2022-10-03T09:32:42;99325.09;;;23.13;42.10
18527;BME280;9393;42.158;24.748;2022-10-03T09:36:14;99317.78;;;23.08;41.98
18527;BME280;9393;42.158;24.748;2022-10-03T09:43:31;99317.59;;;23.22;42.63
18527;BME280;9393;42.158;24.748;2022-10-03T09:46:58;99321.16;;;23.15;42.84
18527;BME280;9393;42.158;24.748;2022-10-03T09:50:57;99315.53;;;22.94;43.80
18527;BME280;9393;42.158;24.748;2022-10-03T09:54:29;99309.97;;;22.84;44.77
18527;BME280;9393;42.158;24.748;2022-10-03T09:57:55;99320.69;;;22.77;45.21
18527;BME280;9393;42.158;24.748;2022-10-03T10:01:19;99334.16;;;22.46;46.31
18527;BME280;9393;42.158;24.748;2022-10-03T10:04:48;99327.28;;;22.56;46.14
18527;BME280;9393;42.158;24.748;2022-10-03T10:12:06;99338.06;;;22.07;47.46
18527;BME280;9393;42.158;24.748;2022-10-03T10:19:15;99350.91;;;21.92;47.50
18527;BME280;9393;42.158;24.748;2022-10-03T10:41:16;99379.44;;;21.15;49.50
18527;BME280;9393;42.158;24.748;2022-10-03T10:52:46;99374.78;;;21.11;50.15
18527;BME280;9393;42.158;24.748;2022-10-03T11:00:13;99387.50;;;20.89;52.59
18527;BME280;9393;42.158;24.748;2022-10-03T11:07:32;99392.63;;;20.84;53.45
18527;BME280;9393;42.158;24.748;2022-10-03T11:11:11;99383.69;;;21.23;53.34
18527;BME280;9393;42.158;24.748;2022-10-03T11:14:33;99391.25;;;21.20;53.86
18527;BME280;9393;42.158;24.748;2022-10-03T11:18:14;99379.34;;;21.29;54.49
18527;BME280;9393;42.158;24.748;2022-10-03T11:33:16;99366.69;;;21.31;57.17
18527;BME280;9393;42.158;24.748;2022-10-03T11:40:16;99364.50;;;21.21;57.46
18527;BME280;9393;42.158;24.748;2022-10-03T11:47:37;99374.03;;;20.91;58.83
18527;BME280;9393;42.158;24.748;2022-10-03T11:50:48;99364.38;;;21.65;56.42
18527;BME280;9393;42.158;24.748;2022-10-03T11:53:59;99361.38;;;21.80;55.95
18527;BME280;9393;42.158;24.748;2022-10-03T11:57:31;99365.44;;;21.83;55.76
18527;BME280;9393;42.158;24.748;2022-10-03T12:00:40;99359.88;;;21.41;56.25
18527;BME280;9393;42.158;24.748;2022-10-03T12:03:51;99361.06;;;21.45;55.83
18527;BME280;9393;42.158;24.748;2022-10-03T12:07:05;99345.72;;;21.54;55.79
18527;BME280;9393;42.158;24.748;2022-10-03T12:10:40;99350.88;;;21.42;55.67
18527;BME280;9393;42.158;24.748;2022-10-03T12:13:55;99353.28;;;21.50;55.28
18527;BME280;9393;42.158;24.748;2022-10-03T12:17:04;99341.03;;;21.74;54.98
18527;BME280;9393;42.158;24.748;2022-10-03T12:20:17;99343.16;;;22.08;52.76
18527;BME280;9393;42.158;24.748;2022-10-03T12:23:47;99345.53;;;21.98;52.04
18527;BME280;9393;42.158;24.748;2022-10-03T12:27:00;99342.94;;;21.92;51.21
18527;BME280;9393;42.158;24.748;2022-10-03T12:30:13;99339.78;;;22.01;50.99
18527;BME280;9393;42.158;24.748;2022-10-03T12:33:33;99333.00;;;22.24;50.01
18527;BME280;9393;42.158;24.748;2022-10-03T12:36:47;99328.41;;;22.31;48.36
18527;BME280;9393;42.158;24.748;2022-10-03T12:40:02;99339.91;;;22.43;48.38
18527;BME280;9393;42.158;24.748;2022-10-03T12:43:20;99339.25;;;22.47;48.54
18527;BME280;9393;42.158;24.748;2022-10-03T12:46:33;99334.88;;;22.53;48.46
18527;BME280;9393;42.158;24.748;2022-10-03T12:49:46;99340.38;;;22.22;48.45
18527;BME280;9393;42.158;24.748;2022-10-03T12:53:03;99336.81;;;22.46;47.74
18527;BME280;9393;42.158;24.748;2022-10-03T12:56:15;99337.38;;;22.66;47.53
18527;BME280;9393;42.158;24.748;2022-10-03T12:59:28;99333.22;;;22.40;47.35
18527;BME280;9393;42.158;24.748;2022-10-03T13:02:42;99332.25;;;22.35;47.90
18527;BME280;9393;42.158;24.748;2022-10-03T13:06:19;99332.97;;;22.78;47.22
18527;BME280;9393;42.158;24.748;2022-10-03T13:09:57;99341.44;;;23.40;44.44
18527;BME280;9393;42.158;24.748;2022-10-03T13:13:19;99333.13;;;23.36;45.17
18527;BME280;9393;42.158;24.748;2022-10-03T13:16:27;99326.47;;;23.92;43.95
18527;BME280;9393;42.158;24.748;2022-10-03T13:19:38;99323.22;;;24.13;43.85
18527;BME280;9393;42.158;24.748;2022-10-03T13:22:54;99325.50;;;24.33;42.17
18527;BME280;9393;42.158;24.748;2022-10-03T13:26:09;99313.22;;;24.08;42.30
18527;BME280;9393;42.158;24.748;2022-10-03T13:29:27;99310.88;;;24.35;41.91
18527;BME280;9393;42.158;24.748;2022-10-03T13:32:35;99309.47;;;24.44;41.94
18527;BME280;9393;42.158;24.748;2022-10-03T13:35:43;99314.38;;;24.24;42.30
18527;BME280;9393;42.158;24.748;2022-10-03T13:39:10;99313.16;;;23.92;43.10
18527;BME280;9393;42.158;24.748;2022-10-03T13:42:19;99311.13;;;23.29;43.15
18527;BME280;9393;42.158;24.748;2022-10-03T13:45:26;99315.53;;;23.35;42.95
18527;BME280;9393;42.158;24.748;2022-10-03T13:48:33;99308.22;;;23.19;43.17
18527;BME280;9393;42.158;24.748;2022-10-03T13:51:44;99307.81;;;22.92;43.79
18527;BME280;9393;42.158;24.748;2022-10-03T13:55:13;99315.13;;;23.08;43.58
18527;BME280;9393;42.158;24.748;2022-10-03T13:58:35;99303.06;;;22.94;43.54
18527;BME280;9393;42.158;24.748;2022-10-03T14:01:49;99303.09;;;23.17;42.57
18527;BME280;9393;42.158;24.748;2022-10-03T14:05:15;99311.41;;;22.98;43.44
18527;BME280;9393;42.158;24.748;2022-10-03T14:08:35;99300.56;;;22.99;42.63
18527;BME280;9393;42.158;24.748;2022-10-03T14:11:50;99303.09;;;23.17;42.83
18527;BME280;9393;42.158;24.748;2022-10-03T14:15:10;99301.75;;;23.27;42.25
18527;BME280;9393;42.158;24.748;2022-10-03T14:18:31;99298.88;;;23.40;41.94
18527;BME280;9393;42.158;24.748;2022-10-03T14:21:56;99299.00;;;23.45;41.61
18527;BME280;9393;42.158;24.748;2022-10-03T14:25:16;99298.44;;;23.43;42.19
18527;BME280;9393;42.158;24.748;2022-10-03T14:28:26;99294.75;;;23.55;41.49
18527;BME280;9393;42.158;24.748;2022-10-03T14:31:35;99287.31;;;23.69;40.79
18527;BME280;9393;42.158;24.748;2022-10-03T14:34:51;99299.94;;;23.85;39.80
18527;BME280;9393;42.158;24.748;2022-10-03T14:41:26;99293.72;;;23.68;37.75
18527;BME280;9393;42.158;24.748;2022-10-03T14:44:36;99297.41;;;23.67;38.52
18527;BME280;9393;42.158;24.748;2022-10-03T14:47:47;99302.97;;;23.54;39.36
18527;BME280;9393;42.158;24.748;2022-10-03T14:50:58;99297.88;;;23.64;39.00
18527;BME280;9393;42.158;24.748;2022-10-03T14:54:14;99295.56;;;23.56;39.93
18527;BME280;9393;42.158;24.748;2022-10-03T14:57:30;99302.22;;;23.35;40.31
18527;BME280;9393;42.158;24.748;2022-10-03T15:01:02;99306.84;;;23.40;40.30
18527;BME280;9393;42.158;24.748;2022-10-03T15:04:29;99311.91;;;23.18;40.06
18527;BME280;9393;42.158;24.748;2022-10-03T15:07:38;99325.22;;;23.18;39.97
18527;BME280;9393;42.158;24.748;2022-10-03T15:10:43;99329.19;;;22.97;40.31
18527;BME280;9393;42.158;24.748;2022-10-03T15:13:50;99329.31;;;22.91;40.40
18527;BME280;9393;42.158;24.748;2022-10-03T15:16:57;99328.19;;;22.50;41.02
18527;BME280;9393;42.158;24.748;2022-10-03T15:20:03;99330.22;;;22.48;41.09
18527;BME280;9393;42.158;24.748;2022-10-03T15:23:17;99331.03;;;22.49;41.10
18527;BME280;9393;42.158;24.748;2022-10-03T15:26:22;99329.63;;;22.17;41.82
18527;BME280;9393;42.158;24.748;2022-10-03T15:29:30;99332.53;;;21.90;42.14
18527;BME280;9393;42.158;24.748;2022-10-03T15:32:37;99337.28;;;21.82;42.52
18527;BME280;9393;42.158;24.748;2022-10-03T15:35:45;99324.78;;;21.89;42.58
18527;BME280;9393;42.158;24.748;2022-10-03T15:38:54;99334.75;;;21.93;42.68
18527;BME280;9393;42.158;24.748;2022-10-03T15:42:03;99341.47;;;21.89;43.00
18527;BME280;9393;42.158;24.748;2022-10-03T15:45:21;99344.34;;;21.70;43.61
18527;BME280;9393;42.158;24.748;2022-10-03T15:48:27;99351.50;;;21.44;44.06
18527;BME280;9393;42.158;24.748;2022-10-03T15:51:34;99353.16;;;21.63;43.80
18527;BME280;9393;42.158;24.748;2022-10-03T15:54:44;99353.59;;;21.60;43.91
18527;BME280;9393;42.158;24.748;2022-10-03T15:57:50;99352.63;;;21.55;43.82
18527;BME280;9393;42.158;24.748;2022-10-03T16:01:04;99373.06;;;21.54;43.72
18527;BME280;9393;42.158;24.748;2022-10-03T16:04:16;99373.31;;;21.46;43.73
18527;BME280;9393;42.158;24.748;2022-10-03T16:07:27;99374.19;;;21.40;43.87
18527;BME280;9393;42.158;24.748;2022-10-03T16:10:35;99373.84;;;21.30;44.09
18527;BME280;9393;42.158;24.748;2022-10-03T16:13:41;99379.16;;;21.30;44.03
18527;BME280;9393;42.158;24.748;2022-10-03T16:16:50;99383.63;;;20.92;44.94
18527;BME280;9393;42.158;24.748;2022-10-03T16:19:55;99381.38;;;20.95;45.22
18527;BME280;9393;42.158;24.748;2022-10-03T16:23:09;99382.00;;;20.91;45.35
18527;BME280;9393;42.158;24.748;2022-10-03T16:26:22;99394.94;;;20.74;46.14
18527;BME280;9393;42.158;24.748;2022-10-03T16:29:27;99393.91;;;20.75;45.93
18527;BME280;9393;42.158;24.748;2022-10-03T16:32:36;99401.88;;;20.75;45.84
18527;BME280;9393;42.158;24.748;2022-10-03T16:35:43;99401.66;;;20.70;45.84
18527;BME280;9393;42.158;24.748;2022-10-03T16:38:51;99406.13;;;20.76;45.49
18527;BME280;9393;42.158;24.748;2022-10-03T16:41:59;99418.34;;;20.77;45.67
18527;BME280;9393;42.158;24.748;2022-10-03T16:45:12;99415.13;;;20.69;45.77
18527;BME280;9393;42.158;24.748;2022-10-03T16:48:23;99421.91;;;20.58;46.47
18527;BME280;9393;42.158;24.748;2022-10-03T16:51:45;99434.25;;;20.77;46.04
18527;BME280;9393;42.158;24.748;2022-10-03T16:54:59;99434.06;;;20.72;46.05
18527;BME280;9393;42.158;24.748;2022-10-03T16:58:16;99430.88;;;20.57;46.86
18527;BME280;9393;42.158;24.748;2022-10-03T17:01:26;99439.25;;;20.47;47.23
18527;BME280;9393;42.158;24.748;2022-10-03T17:04:32;99449.84;;;20.47;47.63
18527;BME280;9393;42.158;24.748;2022-10-03T17:07:39;99449.63;;;20.42;47.71
18527;BME280;9393;42.158;24.748;2022-10-03T17:10:51;99462.31;;;20.27;48.10
18527;BME280;9393;42.158;24.748;2022-10-03T17:14:00;99465.16;;;20.12;48.58
18527;BME280;9393;42.158;24.748;2022-10-03T17:17:11;99469.22;;;19.95;49.12
18527;BME280;9393;42.158;24.748;2022-10-03T17:20:32;99468.41;;;19.75;49.82
18527;BME280;9393;42.158;24.748;2022-10-03T17:23:40;99477.56;;;19.86;49.27
18527;BME280;9393;42.158;24.748;2022-10-03T17:26:46;99480.22;;;19.92;49.63
18527;BME280;9393;42.158;24.748;2022-10-03T17:29:57;99480.81;;;19.94;49.54
18527;BME280;9393;42.158;24.748;2022-10-03T17:33:07;99494.66;;;19.90;49.17
18527;BME280;9393;42.158;24.748;2022-10-03T17:36:31;99493.81;;;19.76;49.33
18527;BME280;9393;42.158;24.748;2022-10-03T17:39:54;99498.91;;;19.58;49.27
18527;BME280;9393;42.158;24.748;2022-10-03T17:43:04;99497.28;;;19.77;48.00
18527;BME280;9393;42.158;24.748;2022-10-03T17:46:16;99507.81;;;19.50;47.64
18527;BME280;9393;42.158;24.748;2022-10-03T17:49:37;99514.94;;;19.50;47.47
18527;BME280;9393;42.158;24.748;2022-10-03T17:52:45;99506.72;;;19.32;47.42
18527;BME280;9393;42.158;24.748;2022-10-03T17:55:53;99512.31;;;19.63;46.76
18527;BME280;9393;42.158;24.748;2022-10-03T17:59:01;99519.41;;;19.43;46.34
18527;BME280;9393;42.158;24.748;2022-10-03T18:02:18;99537.44;;;19.33;46.31
18527;BME280;9393;42.158;24.748;2022-10-03T18:05:26;99530.00;;;19.02;46.78
18527;BME280;9393;42.158;24.748;2022-10-03T18:08:35;99545.56;;;19.31;46.28
18527;BME280;9393;42.158;24.748;2022-10-03T18:11:42;99540.09;;;19.39;45.54
18527;BME280;9393;42.158;24.748;2022-10-03T18:22:08;99547.13;;;19.12;45.19
18527;BME280;9393;42.158;24.748;2022-10-03T18:25:21;99554.66;;;19.15;45.33
18527;BME280;9393;42.158;24.748;2022-10-03T18:29:15;99559.94;;;19.15;45.42
18527;BME280;9393;42.158;24.748;2022-10-03T18:32:23;99561.31;;;19.05;45.74
18527;BME280;9393;42.158;24.748;2022-10-03T18:35:34;99569.50;;;19.16;45.84
18527;BME280;9393;42.158;24.748;2022-10-03T18:38:38;99564.78;;;18.71;46.78
18527;BME280;9393;42.158;24.748;2022-10-03T18:41:43;99575.13;;;19.07;46.26
18527;BME280;9393;42.158;24.748;2022-10-03T18:44:47;99561.88;;;18.66;46.91
18527;BME280;9393;42.158;24.748;2022-10-03T18:47:52;99556.06;;;18.77;46.90
18527;BME280;9393;42.158;24.748;2022-10-03T18:51:06;99559.81;;;18.89;46.15
18527;BME280;9393;42.158;24.748;2022-10-03T18:54:23;99561.28;;;18.64;47.01
18527;BME280;9393;42.158;24.748;2022-10-03T18:57:35;99570.75;;;18.58;47.01
18527;BME280;9393;42.158;24.748;2022-10-03T19:00:48;99572.00;;;18.62;47.04
18527;BME280;9393;42.158;24.748;2022-10-03T19:03:57;99565.03;;;18.55;47.00
18527;BME280;9393;42.158;24.748;2022-10-03T19:07:16;99575.59;;;18.55;47.35
18527;BME280;9393;42.158;24.748;2022-10-03T19:10:33;99562.22;;;18.56;47.17
18527;BME280;9393;42.158;24.748;2022-10-03T19:13:42;99578.94;;;18.42;47.16
18527;BME280;9393;42.158;24.748;2022-10-03T19:20:25;99586.16;;;18.27;47.93
18527;BME280;9393;42.158;24.748;2022-10-03T19:23:35;99589.03;;;18.53;47.35
18527;BME280;9393;42.158;24.748;2022-10-03T19:26:44;99594.41;;;18.45;47.44
18527;BME280;9393;42.158;24.748;2022-10-03T19:29:51;99598.00;;;18.59;46.96
18527;BME280;9393;42.158;24.748;2022-10-03T19:32:57;99595.00;;;18.41;47.71
18527;BME280;9393;42.158;24.748;2022-10-03T19:36:03;99598.97;;;18.30;48.03
18527;BME280;9393;42.158;24.748;2022-10-03T19:39:12;99604.09;;;18.38;48.03
18527;BME280;9393;42.158;24.748;2022-10-03T19:42:30;99595.94;;;18.33;47.92
18527;BME280;9393;42.158;24.748;2022-10-03T19:45:39;99591.81;;;18.31;48.17
18527;BME280;9393;42.158;24.748;2022-10-03T19:48:47;99591.75;;;18.45;48.43
18527;BME280;9393;42.158;24.748;2022-10-03T19:52:14;99590.44;;;18.35;48.63
18527;BME280;9393;42.158;24.748;2022-10-03T19:55:21;99596.25;;;18.24;48.79
18527;BME280;9393;42.158;24.748;2022-10-03T19:58:27;99596.69;;;17.85;49.77
18527;BME280;9393;42.158;24.748;2022-10-03T20:01:40;99596.94;;;18.11;49.61
18527;BME280;9393;42.158;24.748;2022-10-03T20:04:48;99588.63;;;17.93;49.80
18527;BME280;9393;42.158;24.748;2022-10-03T20:07:58;99593.47;;;18.10;49.77
18527;BME280;9393;42.158;24.748;2022-10-03T20:11:12;99596.50;;;18.07;49.53
18527;BME280;9393;42.158;24.748;2022-10-03T20:14:19;99597.31;;;18.08;49.67
18527;BME280;9393;42.158;24.748;2022-10-03T20:17:28;99590.47;;;17.92;50.08
18527;BME280;9393;42.158;24.748;2022-10-03T20:20:32;99597.75;;;17.90;50.22
18527;BME280;9393;42.158;24.748;2022-10-03T20:23:39;99591.44;;;18.06;49.86
18527;BME280;9393;42.158;24.748;2022-10-03T20:26:49;99588.56;;;18.07;49.67
18527;BME280;9393;42.158;24.748;2022-10-03T20:30:06;99602.19;;;17.90;50.33
18527;BME280;9393;42.158;24.748;2022-10-03T20:33:15;99593.97;;;17.78;50.36
18527;BME280;9393;42.158;24.748;2022-10-03T20:36:22;99590.31;;;17.79;50.71
18527;BME280;9393;42.158;24.748;2022-10-03T20:39:30;99599.19;;;17.93;50.48